createdAt,value
2019-05-19T00:00:16.179Z,13.05
2019-05-19T00:01:20.402Z,12.96
2019-05-19T00:02:27.220Z,13.00
2019-05-19T00:03:33.117Z,12.98
2019-05-19T00:04:36.425Z,12.95
2019-05-19T00:05:39.791Z,12.95
2019-05-19T00:06:42.799Z,12.85
2019-05-19T00:07:46.939Z,12.93
2019-05-19T00:08:49.793Z,12.93
2019-05-19T00:09:53.738Z,12.93
2019-05-19T00:11:00.877Z,12.90
2019-05-19T00:12:04.419Z,12.97
2019-05-19T00:13:07.740Z,13.02
2019-05-19T00:14:12.961Z,13.12
2019-05-19T00:15:17.826Z,13.23
2019-05-19T00:16:21.488Z,13.22
2019-05-19T00:17:24.344Z,13.17
2019-05-19T00:18:27.777Z,13.17
2019-05-19T00:19:30.603Z,13.07
2019-05-19T00:20:36.767Z,13.07
2019-05-19T00:21:39.615Z,13.12
2019-05-19T00:22:43.393Z,13.01
2019-05-19T00:23:49.384Z,12.86
2019-05-19T00:24:52.739Z,12.71
2019-05-19T00:25:55.681Z,12.57
2019-05-19T00:26:59.119Z,12.61
2019-05-19T00:28:01.947Z,12.64
2019-05-19T00:29:05.878Z,12.57
2019-05-19T00:30:11.154Z,12.57
2019-05-19T00:31:14.524Z,12.37
2019-05-19T00:32:17.396Z,12.47
2019-05-19T00:33:20.847Z,12.59
2019-05-19T00:34:23.668Z,12.71
2019-05-19T00:35:28.542Z,12.69
2019-05-19T00:36:32.741Z,12.74
2019-05-19T00:37:36.200Z,12.60
2019-05-19T00:38:39.061Z,12.58
2019-05-19T00:39:42.424Z,12.56
2019-05-19T00:40:45.722Z,12.63
2019-05-19T00:41:49.654Z,12.75
2019-05-19T00:42:52.452Z,12.89
2019-05-19T00:43:58.630Z,12.89
2019-05-19T00:45:01.438Z,12.95
2019-05-19T00:46:05.301Z,12.95
2019-05-19T00:47:08.247Z,12.96
2019-05-19T00:48:11.991Z,12.90
2019-05-19T00:49:14.877Z,12.75
2019-05-19T00:50:18.275Z,11.98
2019-05-19T00:51:21.054Z,11.68
2019-05-19T00:52:24.444Z,11.61
2019-05-19T00:53:27.293Z,11.64
2019-05-19T00:54:32.594Z,11.51
2019-05-19T00:55:35.413Z,11.45
2019-05-19T00:56:38.757Z,11.58
2019-05-19T00:57:41.593Z,11.58
2019-05-19T00:58:46.060Z,11.97
2019-05-19T00:59:48.855Z,12.08
2019-05-19T01:00:53.080Z,12.15
2019-05-19T01:01:55.876Z,12.15
2019-05-19T01:02:59.231Z,12.28
2019-05-19T01:04:02.077Z,12.36
2019-05-19T01:05:05.878Z,12.40
2019-05-19T01:06:08.795Z,12.60
2019-05-19T01:07:12.711Z,12.58
2019-05-19T01:08:15.576Z,12.60
2019-05-19T01:09:18.991Z,12.60
2019-05-19T01:10:21.844Z,12.69
2019-05-19T01:11:25.196Z,12.68
2019-05-19T01:12:28.017Z,12.52
2019-05-19T01:13:31.897Z,12.55
2019-05-19T01:14:34.719Z,12.55
2019-05-19T01:15:38.158Z,12.62
2019-05-19T01:16:41.403Z,12.75
2019-05-19T01:17:44.750Z,12.75
2019-05-19T01:18:48.664Z,12.64
2019-05-19T01:19:56.141Z,12.58
2019-05-19T01:20:57.078Z,12.58
2019-05-19T01:22:00.802Z,12.32
2019-05-19T01:23:03.623Z,12.36
2019-05-19T01:24:07.082Z,12.42
2019-05-19T01:25:09.895Z,12.43
2019-05-19T01:26:15.096Z,12.42
2019-05-19T01:27:18.330Z,12.40
2019-05-19T01:28:21.733Z,12.40
2019-05-19T01:29:24.641Z,12.62
2019-05-19T01:30:29.359Z,12.65
2019-05-19T01:31:32.246Z,12.65
2019-05-19T01:32:36.070Z,12.56
2019-05-19T01:33:38.895Z,12.56
2019-05-19T01:34:42.314Z,12.49
2019-05-19T01:35:45.117Z,12.48
2019-05-19T01:36:48.548Z,12.55
2019-05-19T01:37:54.439Z,12.55
2019-05-19T01:38:58.160Z,12.59
2019-05-19T01:40:07.059Z,12.63
2019-05-19T01:41:10.423Z,12.64
2019-05-19T01:42:16.049Z,12.64
2019-05-19T01:43:19.401Z,12.24
2019-05-19T01:44:22.219Z,12.11
2019-05-19T01:45:25.603Z,12.11
2019-05-19T01:46:28.914Z,11.92
2019-05-19T01:47:32.303Z,11.98
2019-05-19T01:48:36.465Z,11.91
2019-05-19T01:49:40.253Z,12.06
2019-05-19T01:51:32.415Z,12.11
2019-05-19T01:51:50.058Z,12.15
2019-05-19T01:52:54.794Z,12.31
2019-05-19T01:53:58.142Z,12.31
2019-05-19T01:55:01.498Z,12.39
2019-05-19T01:56:04.934Z,12.39
2019-05-19T01:57:07.766Z,12.55
2019-05-19T01:58:11.680Z,12.55
2019-05-19T01:59:14.520Z,12.63
2019-05-19T02:00:17.987Z,12.63
2019-05-19T02:01:21.166Z,12.57
2019-05-19T02:02:25.035Z,12.49
2019-05-19T02:03:29.810Z,12.42
2019-05-19T02:04:33.345Z,12.32
2019-05-19T02:05:39.025Z,12.17
2019-05-19T02:06:42.424Z,11.97
2019-05-19T02:07:45.247Z,11.82
2019-05-19T02:08:51.111Z,11.62
2019-05-19T02:09:54.495Z,11.42
2019-05-19T02:10:58.410Z,11.43
2019-05-19T02:12:04.246Z,11.48
2019-05-19T02:13:14.185Z,11.56
2019-05-19T02:14:17.421Z,11.63
2019-05-19T02:15:23.583Z,11.67
2019-05-19T02:16:27.827Z,11.76
2019-05-19T02:17:31.551Z,11.87
2019-05-19T02:18:34.453Z,11.96
2019-05-19T02:19:38.846Z,11.97
2019-05-19T02:20:41.747Z,11.84
2019-05-19T02:22:08.100Z,11.70
2019-05-19T02:23:11.436Z,11.70
2019-05-19T02:24:15.219Z,11.57
2019-05-19T02:25:18.085Z,11.72
2019-05-19T02:26:21.434Z,11.79
2019-05-19T02:27:24.260Z,11.71
2019-05-19T02:28:27.682Z,11.47
2019-05-19T02:29:33.537Z,11.39
2019-05-19T02:30:38.374Z,11.50
2019-05-19T02:31:41.988Z,11.67
2019-05-19T02:32:45.438Z,11.67
2019-05-19T02:33:48.272Z,11.84
2019-05-19T02:34:51.879Z,11.83
2019-05-19T02:35:54.873Z,11.82
2019-05-19T02:36:58.737Z,11.84
2019-05-19T02:38:01.544Z,11.88
2019-05-19T02:39:06.709Z,11.86
2019-05-19T02:40:09.559Z,11.85
2019-05-19T02:41:13.013Z,11.84
2019-05-19T02:42:16.264Z,11.85
2019-05-19T02:43:19.717Z,11.94
2019-05-19T02:44:23.828Z,11.97
2019-05-19T02:45:27.272Z,11.80
2019-05-19T02:46:32.942Z,11.68
2019-05-19T02:47:36.354Z,11.71
2019-05-19T02:48:39.657Z,11.81
2019-05-19T02:49:43.049Z,11.81
2019-05-19T02:50:52.186Z,11.88
2019-05-19T02:51:51.234Z,11.84
2019-05-19T02:52:54.090Z,11.63
2019-05-19T02:53:57.529Z,11.53
2019-05-19T02:55:00.932Z,11.56
2019-05-19T02:56:04.502Z,11.56
2019-05-19T02:57:07.337Z,11.64
2019-05-19T02:58:10.789Z,11.57
2019-05-19T02:59:13.627Z,11.56
2019-05-19T03:00:17.034Z,11.41
2019-05-19T03:01:20.325Z,11.16
2019-05-19T03:02:23.968Z,11.04
2019-05-19T03:03:26.861Z,10.96
2019-05-19T03:04:30.339Z,10.92
2019-05-19T03:05:33.272Z,10.95
2019-05-19T03:06:36.744Z,10.95
2019-05-19T03:07:39.983Z,10.97
2019-05-19T03:08:43.671Z,10.97
2019-05-19T03:09:46.600Z,11.10
2019-05-19T03:10:50.067Z,11.10
2019-05-19T03:11:53.171Z,11.10
2019-05-19T03:12:58.830Z,11.02
2019-05-19T03:14:02.916Z,11.07
2019-05-19T03:15:06.419Z,11.07
2019-05-19T03:16:09.389Z,11.16
2019-05-19T03:17:12.841Z,11.10
2019-05-19T03:18:16.272Z,11.09
2019-05-19T03:19:21.760Z,11.13
2019-05-19T03:20:25.086Z,11.12
2019-05-19T03:21:28.546Z,11.12
2019-05-19T03:22:34.605Z,11.21
2019-05-19T03:23:41.195Z,11.21
2019-05-19T03:24:44.071Z,11.15
2019-05-19T03:25:47.460Z,11.16
2019-05-19T03:26:50.338Z,11.25
2019-05-19T03:27:54.146Z,11.19
2019-05-19T03:28:58.322Z,11.22
2019-05-19T03:30:20.461Z,11.16
2019-05-19T03:31:45.617Z,11.15
2019-05-19T03:32:53.189Z,11.15
2019-05-19T03:33:59.143Z,11.04
2019-05-19T03:35:02.098Z,11.04
2019-05-19T03:36:07.584Z,11.09
2019-05-19T03:38:48.481Z,11.12
2019-05-19T03:39:51.988Z,11.09
2019-05-19T03:40:54.886Z,11.07
2019-05-19T03:41:58.348Z,11.07
2019-05-19T03:43:01.203Z,11.03
2019-05-19T03:44:04.636Z,11.06
2019-05-19T03:45:07.803Z,11.05
2019-05-19T03:46:11.395Z,11.05
2019-05-19T03:47:14.264Z,11.04
2019-05-19T03:48:17.830Z,10.93
2019-05-19T03:49:20.669Z,10.93
2019-05-19T03:50:24.538Z,10.93
2019-05-19T03:51:31.358Z,10.99
2019-05-19T03:52:32.912Z,11.08
2019-05-19T03:53:35.821Z,11.22
2019-05-19T03:54:39.263Z,11.33
2019-05-19T03:55:42.070Z,11.41
2019-05-19T03:56:45.538Z,11.49
2019-05-19T03:57:50.600Z,11.55
2019-05-19T03:58:55.189Z,11.45
2019-05-19T03:59:58.120Z,11.28
2019-05-19T04:01:01.497Z,11.32
2019-05-19T04:02:04.342Z,11.34
2019-05-19T04:03:07.774Z,11.34
2019-05-19T04:04:11.003Z,11.36
2019-05-19T04:05:14.369Z,11.40
2019-05-19T04:06:17.173Z,11.33
2019-05-19T04:07:20.662Z,11.33
2019-05-19T04:08:23.692Z,11.23
2019-05-19T04:09:27.179Z,11.23
2019-05-19T04:10:30.580Z,11.14
2019-05-19T04:11:34.210Z,10.97
2019-05-19T04:12:43.282Z,11.00
2019-05-19T04:13:42.683Z,11.00
2019-05-19T04:14:45.649Z,11.00
2019-05-19T04:16:19.349Z,11.15
2019-05-19T04:16:53.980Z,11.16
2019-05-19T04:17:57.414Z,11.17
2019-05-19T04:19:00.218Z,11.17
2019-05-19T04:20:03.646Z,11.30
2019-05-19T04:21:06.468Z,11.35
2019-05-19T04:22:09.825Z,11.38
2019-05-19T04:23:13.113Z,11.42
2019-05-19T04:24:16.725Z,11.47
2019-05-19T04:25:19.612Z,11.28
2019-05-19T04:26:22.989Z,11.28
2019-05-19T04:27:25.825Z,11.24
2019-05-19T04:28:29.168Z,11.17
2019-05-19T04:29:32.544Z,11.16
2019-05-19T04:30:36.006Z,11.20
2019-05-19T04:31:38.967Z,11.32
2019-05-19T04:32:42.352Z,11.37
2019-05-19T04:33:45.258Z,11.51
2019-05-19T04:34:50.847Z,11.61
2019-05-19T04:35:57.557Z,11.62
2019-05-19T04:36:59.040Z,11.60
2019-05-19T04:38:02.447Z,11.59
2019-05-19T04:39:07.506Z,11.38
2019-05-19T04:40:10.409Z,11.33
2019-05-19T04:41:14.103Z,11.33
2019-05-19T04:42:17.431Z,11.53
2019-05-19T04:43:20.888Z,11.51
2019-05-19T04:44:23.710Z,11.67
2019-05-19T04:45:27.084Z,11.78
2019-05-19T04:46:29.940Z,11.94
2019-05-19T04:47:33.368Z,11.92
2019-05-19T04:48:36.246Z,11.92
2019-05-19T04:49:39.733Z,11.91
2019-05-19T04:50:42.951Z,12.07
2019-05-19T04:51:46.351Z,12.01
2019-05-19T04:52:49.199Z,11.98
2019-05-19T04:53:54.882Z,11.83
2019-05-19T04:54:59.951Z,11.80
2019-05-19T04:56:03.356Z,11.80
2019-05-19T04:57:06.572Z,11.83
2019-05-19T04:58:10.033Z,11.89
2019-05-19T04:59:12.937Z,11.99
2019-05-19T05:00:16.718Z,11.99
2019-05-19T05:01:19.633Z,12.03
2019-05-19T05:02:23.058Z,12.03
2019-05-19T05:03:28.296Z,12.04
2019-05-19T05:04:34.276Z,12.08
2019-05-19T05:05:37.094Z,12.04
2019-05-19T05:06:40.899Z,12.02
2019-05-19T05:07:43.702Z,11.96
2019-05-19T05:08:47.134Z,11.98
2019-05-19T05:09:50.316Z,12.02
2019-05-19T05:10:54.284Z,12.13
2019-05-19T05:11:57.105Z,12.13
2019-05-19T05:13:00.900Z,12.24
2019-05-19T05:14:03.821Z,12.32
2019-05-19T05:15:07.174Z,12.46
2019-05-19T05:16:13.043Z,12.54
2019-05-19T05:17:16.423Z,12.49
2019-05-19T05:18:19.250Z,12.50
2019-05-19T05:19:27.859Z,12.56
2019-05-19T05:20:30.796Z,12.57
2019-05-19T05:21:34.276Z,12.57
2019-05-19T05:22:37.383Z,12.62
2019-05-19T05:23:40.806Z,12.58
2019-05-19T05:24:43.649Z,12.50
2019-05-19T05:25:48.199Z,12.42
2019-05-19T05:26:51.007Z,12.41
2019-05-19T05:27:54.381Z,12.34
2019-05-19T05:28:57.238Z,12.39
2019-05-19T05:30:00.644Z,12.39
2019-05-19T05:44:07.899Z,12.94
2019-05-19T05:45:11.399Z,12.89
2019-05-19T05:46:14.199Z,12.89
2019-05-19T05:47:21.463Z,12.67
2019-05-19T05:48:25.310Z,12.36
2019-05-19T05:49:31.906Z,12.15
2019-05-19T05:50:35.779Z,12.09
2019-05-19T05:51:39.280Z,12.25
2019-05-19T05:52:47.021Z,12.25
2019-05-19T05:53:50.400Z,12.52
2019-05-19T05:54:55.658Z,12.52
2019-05-19T05:55:59.424Z,12.73
2019-05-19T05:57:02.324Z,12.75
2019-05-19T05:58:05.685Z,12.71
2019-05-19T05:59:11.984Z,12.71
2019-05-19T06:00:21.354Z,12.74
2019-05-19T06:01:26.947Z,12.72
2019-05-19T06:02:30.394Z,12.72
2019-05-19T06:03:33.216Z,12.52
2019-05-19T06:04:36.568Z,12.52
2019-05-19T06:05:39.529Z,12.43
2019-05-19T06:06:45.784Z,12.48
2019-05-19T06:07:48.350Z,12.49
2019-05-19T06:08:54.158Z,12.52
2019-05-19T06:09:58.357Z,12.64
2019-05-19T06:11:03.431Z,12.59
2019-05-19T06:12:07.667Z,12.69
2019-05-19T06:13:14.064Z,12.81
2019-05-19T06:14:17.318Z,12.78
2019-05-19T06:15:21.933Z,12.79
2019-05-19T06:16:26.061Z,12.87
2019-05-19T06:17:29.528Z,12.87
2019-05-19T06:18:35.342Z,13.04
2019-05-19T06:19:38.792Z,13.14
2019-05-19T06:20:44.993Z,13.18
2019-05-19T06:21:48.414Z,13.13
2019-05-19T06:22:56.996Z,13.09
2019-05-19T06:23:59.831Z,13.01
2019-05-19T06:25:02.723Z,12.92
2019-05-19T06:26:06.354Z,12.86
2019-05-19T06:27:09.607Z,12.74
2019-05-19T06:28:13.468Z,12.80
2019-05-19T06:29:21.722Z,12.69
2019-05-19T06:30:25.168Z,12.65
2019-05-19T06:31:28.209Z,12.76
2019-05-19T06:32:52.079Z,12.86
2019-05-19T06:33:54.949Z,12.86
2019-05-19T06:34:58.597Z,13.03
2019-05-19T06:36:01.539Z,13.13
2019-05-19T06:37:05.104Z,13.13
2019-05-19T06:38:08.554Z,13.21
2019-05-19T06:39:12.524Z,13.21
2019-05-19T06:40:15.908Z,12.97
2019-05-19T06:41:20.663Z,12.97
2019-05-19T06:42:26.648Z,13.34
2019-05-19T06:43:31.178Z,13.57
2019-05-19T06:44:38.781Z,13.57
2019-05-19T06:45:49.948Z,13.75
2019-05-19T06:46:52.806Z,13.99
2019-05-19T06:47:56.363Z,13.92
2019-05-19T06:48:59.596Z,13.92
2019-05-19T06:50:02.992Z,13.83
2019-05-19T06:52:33.397Z,14.18
2019-05-19T06:53:38.514Z,14.18
2019-05-19T06:54:41.923Z,14.02
2019-05-19T06:55:44.773Z,14.02
2019-05-19T06:56:48.167Z,14.04
2019-05-19T06:57:51.501Z,14.10
2019-05-19T06:58:54.957Z,14.10
2019-05-19T06:59:57.787Z,14.15
2019-05-19T07:01:01.186Z,13.95
2019-05-19T07:02:04.004Z,13.95
2019-05-19T07:03:07.455Z,14.06
2019-05-19T07:04:10.918Z,14.17
2019-05-19T07:05:14.330Z,14.23
2019-05-19T07:06:17.160Z,14.17
2019-05-19T07:07:20.749Z,14.20
2019-05-19T07:08:23.586Z,14.35
2019-05-19T07:09:30.039Z,14.59
2019-05-19T07:10:33.432Z,14.74
2019-05-19T07:11:38.267Z,14.74
2019-05-19T07:12:41.179Z,14.88
2019-05-19T07:13:44.612Z,14.95
2019-05-19T07:14:47.449Z,15.01
2019-05-19T07:15:57.384Z,15.01
2019-05-19T07:17:00.623Z,15.18
2019-05-19T07:18:04.090Z,15.16
2019-05-19T07:19:06.895Z,15.16
2019-05-19T07:20:10.320Z,14.95
2019-05-19T07:21:13.144Z,14.50
2019-05-19T07:22:18.437Z,14.11
2019-05-19T07:23:28.194Z,14.11
2019-05-19T07:24:31.106Z,14.11
2019-05-19T07:25:33.978Z,14.26
2019-05-19T07:26:38.315Z,14.35
2019-05-19T07:27:43.929Z,14.40
2019-05-19T07:28:47.302Z,14.72
2019-05-19T07:29:54.705Z,14.72
2019-05-19T07:30:58.105Z,15.19
2019-05-19T07:32:00.928Z,15.34
2019-05-19T07:33:04.580Z,15.54
2019-05-19T07:34:07.368Z,15.70
2019-05-19T07:35:10.813Z,15.77
2019-05-19T07:36:14.077Z,15.69
2019-05-19T07:37:17.644Z,15.69
2019-05-19T07:38:20.600Z,15.88
2019-05-19T07:39:24.027Z,15.94
2019-05-19T07:40:27.097Z,16.06
2019-05-19T07:41:30.565Z,16.11
2019-05-19T07:42:36.967Z,16.33
2019-05-19T07:43:40.581Z,16.29
2019-05-19T07:44:49.003Z,16.35
2019-05-19T07:45:52.445Z,16.56
2019-05-19T07:46:55.670Z,16.73
2019-05-19T07:47:59.199Z,16.73
2019-05-19T07:49:03.649Z,16.86
2019-05-19T07:50:10.286Z,16.67
2019-05-19T07:51:15.319Z,16.79
2019-05-19T07:52:20.309Z,16.78
2019-05-19T07:53:23.176Z,16.80
2019-05-19T07:54:29.026Z,17.11
2019-05-19T07:55:32.214Z,17.29
2019-05-19T07:56:37.833Z,17.43
2019-05-19T07:57:40.652Z,17.64
2019-05-19T07:59:03.199Z,17.64
2019-05-19T08:00:06.146Z,17.80
2019-05-19T08:01:15.338Z,17.86
2019-05-19T08:02:19.824Z,17.67
2019-05-19T08:03:23.237Z,17.67
2019-05-19T08:04:26.644Z,17.99
2019-05-19T08:05:32.844Z,17.65
2019-05-19T08:06:35.690Z,17.66
2019-05-19T08:07:39.570Z,17.48
2019-05-19T08:08:43.176Z,17.36
2019-05-19T08:09:49.812Z,17.49
2019-05-19T08:10:52.684Z,17.52
2019-05-19T08:11:56.160Z,17.44
2019-05-19T08:12:59.061Z,17.45
2019-05-19T08:14:02.849Z,17.46
2019-05-19T08:15:05.726Z,17.56
2019-05-19T08:16:10.078Z,17.48
2019-05-19T08:17:13.404Z,17.65
2019-05-19T08:18:36.266Z,17.76
2019-05-19T08:19:30.584Z,17.97
2019-05-19T08:20:37.921Z,17.97
2019-05-19T08:21:40.730Z,18.48
2019-05-19T08:22:44.195Z,18.87
2019-05-19T08:23:59.757Z,19.35
2019-05-19T08:24:53.238Z,19.37
2019-05-19T08:26:01.397Z,19.48
2019-05-19T08:27:04.810Z,19.48
2019-05-19T08:28:09.114Z,19.27
2019-05-19T08:29:16.268Z,19.11
2019-05-19T08:30:19.455Z,18.95
2019-05-19T08:31:26.247Z,18.95
2019-05-19T08:32:29.077Z,18.88
2019-05-19T08:33:32.501Z,19.37
2019-05-19T08:34:38.187Z,19.45
2019-05-19T08:35:41.548Z,19.48
2019-05-19T08:36:46.385Z,19.58
2019-05-19T08:37:50.937Z,19.20
2019-05-19T08:38:56.594Z,19.24
2019-05-19T08:40:00.148Z,19.12
2019-05-19T08:41:06.005Z,18.97
2019-05-19T08:42:09.766Z,19.03
2019-05-19T08:43:12.612Z,19.03
2019-05-19T08:44:16.623Z,19.10
2019-05-19T08:45:19.431Z,19.34
2019-05-19T08:46:22.940Z,19.73
2019-05-19T08:47:25.772Z,20.08
2019-05-19T08:48:29.250Z,19.98
2019-05-19T08:49:32.178Z,19.55
2019-05-19T08:50:37.457Z,19.49
2019-05-19T08:51:40.339Z,19.49
2019-05-19T08:52:43.735Z,19.75
2019-05-19T08:53:48.797Z,19.78
2019-05-19T08:54:52.586Z,19.84
2019-05-19T08:55:55.561Z,19.61
2019-05-19T08:57:16.159Z,19.86
2019-05-19T08:58:19.004Z,20.34
2019-05-19T08:59:22.461Z,20.38
2019-05-19T09:00:25.292Z,20.94
2019-05-19T09:01:32.400Z,21.24
2019-05-19T09:02:35.301Z,21.24
2019-05-19T09:03:39.255Z,20.75
2019-05-19T09:04:42.111Z,20.65
2019-05-19T09:05:49.888Z,20.82
2019-05-19T09:06:52.825Z,20.95
2019-05-19T09:07:56.209Z,20.95
2019-05-19T09:09:01.756Z,21.14
2019-05-19T09:10:05.682Z,21.10
2019-05-19T09:11:11.735Z,21.33
2019-05-19T09:12:15.196Z,21.06
2019-05-19T09:13:19.222Z,21.32
2019-05-19T09:14:22.585Z,21.32
2019-05-19T09:15:28.272Z,21.52
2019-05-19T09:16:33.309Z,21.82
2019-05-19T09:17:36.430Z,21.08
2019-05-19T09:18:42.582Z,21.08
2019-05-19T09:19:45.607Z,21.26
2019-05-19T09:20:57.865Z,21.29
2019-05-19T09:22:02.991Z,21.40
2019-05-19T09:23:06.591Z,21.40
2019-05-19T09:24:09.849Z,21.21
2019-05-19T09:25:13.473Z,21.10
2019-05-19T09:26:26.995Z,21.16
2019-05-19T09:27:22.221Z,21.37
2019-05-19T09:28:28.080Z,20.98
2019-05-19T09:29:36.950Z,20.67
2019-05-19T09:30:39.495Z,20.53
2019-05-19T09:31:42.960Z,20.47
2019-05-19T09:32:45.855Z,20.33
2019-05-19T09:33:49.658Z,20.38
2019-05-19T09:34:52.671Z,20.42
2019-05-19T09:35:57.653Z,20.40
2019-05-19T09:37:00.758Z,20.65
2019-05-19T09:38:10.445Z,20.81
2019-05-19T09:39:13.547Z,20.96
2019-05-19T09:40:26.139Z,20.96
2019-05-19T09:41:27.760Z,21.05
2019-05-19T09:42:36.694Z,21.31
2019-05-19T09:43:41.898Z,21.51
2019-05-19T09:44:45.560Z,21.69
2019-05-19T09:45:49.944Z,21.68
2019-05-19T09:46:54.499Z,21.68
2019-05-19T09:48:16.402Z,21.88
2019-05-19T09:49:35.819Z,22.45
2019-05-19T09:50:52.015Z,22.60
2019-05-19T09:51:55.811Z,22.82
2019-05-19T09:52:58.700Z,22.96
2019-05-19T09:54:05.061Z,22.80
2019-05-19T09:55:07.979Z,22.83
2019-05-19T09:56:12.471Z,22.99
2019-05-19T09:57:15.377Z,23.12
2019-05-19T09:58:20.087Z,23.26
2019-05-19T09:59:26.052Z,23.44
2019-05-19T10:00:30.204Z,23.44
2019-05-19T10:01:37.494Z,23.18
2019-05-19T10:02:40.936Z,22.86
2019-05-19T10:03:43.813Z,22.38
2019-05-19T10:04:47.193Z,22.01
2019-05-19T10:05:50.547Z,21.87
2019-05-19T10:06:56.863Z,21.27
2019-05-19T10:07:59.783Z,20.96
2019-05-19T10:09:04.079Z,20.96
2019-05-19T10:10:07.978Z,20.91
2019-05-19T10:11:19.090Z,21.06
2019-05-19T10:12:17.487Z,21.00
2019-05-19T10:13:22.001Z,21.04
2019-05-19T10:14:24.880Z,21.04
2019-05-19T10:15:28.284Z,20.88
2019-05-19T10:16:31.256Z,20.86
2019-05-19T10:17:37.359Z,21.01
2019-05-19T10:18:40.358Z,21.19
2019-05-19T10:19:44.278Z,21.24
2019-05-19T10:20:50.315Z,21.24
2019-05-19T10:21:52.379Z,20.93
2019-05-19T10:22:55.476Z,20.93
2019-05-19T10:24:02.966Z,20.86
2019-05-19T10:25:21.016Z,21.06
2019-05-19T10:26:17.249Z,21.16
2019-05-19T10:27:21.723Z,21.16
2019-05-19T10:28:25.391Z,21.37
2019-05-19T10:29:28.265Z,21.49
2019-05-19T10:42:53.338Z,22.13
2019-05-19T10:44:05.246Z,22.45
2019-05-19T10:45:09.161Z,22.78
2019-05-19T10:46:15.092Z,22.74
2019-05-19T10:47:18.199Z,22.72
2019-05-19T10:48:22.031Z,22.71
2019-05-19T10:49:24.860Z,22.69
2019-05-19T10:50:28.315Z,22.75
2019-05-19T10:51:31.846Z,22.82
2019-05-19T10:52:35.242Z,22.82
2019-05-19T10:53:38.181Z,23.23
2019-05-19T10:54:43.274Z,23.16
2019-05-19T10:55:46.606Z,23.16
2019-05-19T10:56:51.897Z,22.53
2019-05-19T10:57:55.010Z,22.19
2019-05-19T10:58:58.597Z,22.39
2019-05-19T11:00:04.730Z,22.54
2019-05-19T11:01:10.665Z,22.26
2019-05-19T11:02:19.716Z,22.31
2019-05-19T11:03:23.317Z,22.31
2019-05-19T11:04:26.382Z,22.69
2019-05-19T11:05:31.406Z,22.67
2019-05-19T11:06:34.437Z,22.60
2019-05-19T11:07:38.665Z,22.61
2019-05-19T11:08:44.296Z,22.43
2019-05-19T11:09:52.839Z,22.26
2019-05-19T11:11:02.168Z,22.26
2019-05-19T11:12:06.752Z,22.17
2019-05-19T11:13:19.765Z,22.17
2019-05-19T11:14:25.969Z,22.35
2019-05-19T11:15:32.035Z,22.39
2019-05-19T11:16:35.627Z,22.57
2019-05-19T11:17:41.912Z,22.57
2019-05-19T11:18:47.472Z,22.64
2019-05-19T11:19:54.578Z,22.55
2019-05-19T11:20:58.168Z,22.55
2019-05-19T11:22:01.271Z,22.39
2019-05-19T11:23:06.276Z,21.94
2019-05-19T11:24:16.812Z,21.60
2019-05-19T11:25:33.006Z,21.75
2019-05-19T11:26:29.186Z,21.75
2019-05-19T11:27:32.610Z,22.28
2019-05-19T11:28:35.463Z,22.22
2019-05-19T11:29:39.377Z,22.09
2019-05-19T11:30:42.888Z,22.17
2019-05-19T11:31:46.772Z,22.21
2019-05-19T11:32:49.636Z,22.51
2019-05-19T11:34:10.953Z,22.74
2019-05-19T11:35:16.579Z,22.60
2019-05-19T11:36:20.006Z,22.33
2019-05-19T11:37:24.945Z,21.97
2019-05-19T11:38:28.462Z,21.97
2019-05-19T11:39:34.307Z,21.76
2019-05-19T11:40:37.658Z,21.55
2019-05-19T11:41:42.224Z,21.55
2019-05-19T11:42:49.258Z,20.56
2019-05-19T11:43:52.639Z,20.56
2019-05-19T11:44:59.301Z,19.97
2019-05-19T11:46:02.344Z,19.81
2019-05-19T11:47:12.811Z,19.51
2019-05-19T11:48:20.020Z,19.37
2019-05-19T11:49:25.020Z,19.13
2019-05-19T11:50:28.074Z,18.85
2019-05-19T11:51:31.929Z,18.85
2019-05-19T11:52:46.714Z,18.29
2019-05-19T11:53:50.572Z,18.24
2019-05-19T11:54:55.753Z,18.29
2019-05-19T11:56:06.616Z,18.29
2019-05-19T11:57:07.500Z,18.25
2019-05-19T11:58:13.358Z,18.12
2019-05-19T11:59:17.412Z,18.33
2019-05-19T12:00:27.548Z,18.33
2019-05-19T12:01:25.805Z,18.14
2019-05-19T12:02:29.390Z,18.15
2019-05-19T12:03:33.614Z,17.94
2019-05-19T12:04:37.444Z,17.94
2019-05-19T12:05:43.157Z,17.87
2019-05-19T12:06:52.839Z,17.87
2019-05-19T12:07:55.711Z,17.83
2019-05-19T12:08:59.001Z,17.90
2019-05-19T12:10:04.386Z,17.72
2019-05-19T12:11:08.457Z,17.70
2019-05-19T12:12:11.469Z,17.85
2019-05-19T12:13:15.415Z,17.85
2019-05-19T12:14:21.305Z,17.83
2019-05-19T12:15:28.462Z,17.92
2019-05-19T12:16:34.573Z,17.99
2019-05-19T12:17:38.491Z,17.85
2019-05-19T12:18:41.317Z,17.74
2019-05-19T12:19:46.279Z,17.68
2019-05-19T12:20:51.998Z,17.77
2019-05-19T12:21:56.301Z,17.77
2019-05-19T12:23:02.655Z,17.65
2019-05-19T12:24:06.857Z,17.63
2019-05-19T12:25:10.122Z,17.57
2019-05-19T12:26:23.355Z,17.57
2019-05-19T12:27:19.269Z,17.46
2019-05-19T12:28:25.615Z,17.38
2019-05-19T12:29:30.238Z,17.27
2019-05-19T12:30:37.306Z,17.11
2019-05-19T12:31:46.721Z,17.11
2019-05-19T12:32:59.334Z,16.80
2019-05-19T12:34:04.030Z,16.49
2019-05-19T12:35:07.530Z,16.16
2019-05-19T12:36:12.335Z,16.14
2019-05-19T12:37:15.837Z,16.11
2019-05-19T12:38:20.366Z,16.02
2019-05-19T12:39:27.444Z,15.92
2019-05-19T12:40:33.279Z,15.92
2019-05-19T12:41:36.693Z,15.95
2019-05-19T12:42:40.047Z,15.91
2019-05-19T12:43:44.337Z,15.98
2019-05-19T12:44:52.352Z,15.92
2019-05-19T12:46:16.385Z,15.92
2019-05-19T12:47:19.372Z,15.89
2019-05-19T12:48:28.888Z,15.76
2019-05-19T12:50:02.409Z,15.56
2019-05-19T12:51:07.577Z,15.65
2019-05-19T12:52:13.923Z,15.46
2019-05-19T12:53:29.237Z,15.32
2019-05-19T12:54:33.127Z,15.32
2019-05-19T12:55:36.493Z,15.01
2019-05-19T12:56:42.452Z,14.70
2019-05-19T12:57:49.156Z,14.49
2019-05-19T12:58:54.240Z,14.36
2019-05-19T13:00:02.278Z,14.36
2019-05-19T13:01:08.241Z,14.50
2019-05-19T13:02:11.629Z,14.68
2019-05-19T13:03:18.665Z,14.97
2019-05-19T13:04:24.141Z,15.02
2019-05-19T13:05:28.031Z,15.05
2019-05-19T13:06:31.297Z,15.04
2019-05-19T13:08:58.257Z,15.15
2019-05-19T13:10:02.880Z,15.26
2019-05-19T13:11:20.236Z,15.26
2019-05-19T13:12:27.455Z,15.30
2019-05-19T13:13:31.306Z,15.32
2019-05-19T13:14:39.212Z,15.31
2019-05-19T13:15:45.454Z,15.30
2019-05-19T13:16:49.986Z,15.35
2019-05-19T13:17:54.620Z,15.40
2019-05-19T13:18:59.575Z,15.33
2019-05-19T13:20:14.169Z,15.26
2019-05-19T13:21:25.991Z,15.26
2019-05-19T13:22:25.444Z,15.14
2019-05-19T13:23:31.133Z,15.30
2019-05-19T13:24:34.236Z,15.42
2019-05-19T13:25:43.142Z,15.28
2019-05-19T13:26:55.992Z,14.95
2019-05-19T13:27:52.795Z,14.62
2019-05-19T13:28:56.579Z,14.61
2019-05-19T13:30:00.244Z,14.63
2019-05-19T13:31:06.344Z,14.76
2019-05-19T13:32:09.715Z,14.87
2019-05-19T13:33:14.842Z,15.03
2019-05-19T13:34:19.400Z,15.15
2019-05-19T13:35:22.535Z,15.26
2019-05-19T13:36:28.899Z,15.31
2019-05-19T13:37:32.032Z,15.28
2019-05-19T13:38:35.498Z,15.37
2019-05-19T13:39:41.170Z,15.46
2019-05-19T13:40:47.472Z,15.44
2019-05-19T13:41:57.231Z,15.49
2019-05-19T13:43:00.817Z,15.49
2019-05-19T13:44:04.282Z,15.53
2019-05-19T13:45:07.646Z,15.69
2019-05-19T13:46:16.936Z,15.69
2019-05-19T13:47:24.038Z,15.75
2019-05-19T13:48:27.275Z,15.81
2019-05-19T13:49:30.838Z,15.98
2019-05-19T13:50:33.697Z,15.92
2019-05-19T13:51:42.818Z,16.01
2019-05-19T13:52:45.964Z,16.00
2019-05-19T13:53:54.079Z,16.02
2019-05-19T13:54:57.393Z,15.96
2019-05-19T13:56:00.767Z,15.64
2019-05-19T13:57:12.323Z,15.78
2019-05-19T13:58:15.076Z,15.43
2019-05-19T13:59:15.536Z,15.68
2019-05-19T14:00:21.201Z,15.88
2019-05-19T14:01:28.439Z,15.88
2019-05-19T14:02:30.216Z,16.17
2019-05-19T14:03:33.451Z,16.17
2019-05-19T14:04:37.065Z,16.17
2019-05-19T14:05:40.062Z,16.26
2019-05-19T14:06:43.494Z,16.33
2019-05-19T14:07:51.838Z,16.33
2019-05-19T14:08:55.221Z,16.44
2019-05-19T14:09:59.933Z,16.50
2019-05-19T14:11:03.393Z,16.50
2019-05-19T14:12:06.340Z,16.34
2019-05-19T14:13:09.842Z,16.37
2019-05-19T14:14:14.501Z,16.37
2019-05-19T14:15:17.910Z,16.37
2019-05-19T14:16:20.797Z,16.48
2019-05-19T14:17:24.344Z,16.45
2019-05-19T14:18:27.300Z,16.46
2019-05-19T14:19:30.692Z,16.38
2019-05-19T14:20:34.113Z,16.38
2019-05-19T14:21:37.662Z,16.37